Time;durP1;ratioP1;P1;durP2;ratioP2;P2;SDS_P1;SDS_P2;PMS_P1;PMS_P2;Temp;Humidity;BMP_temperature;BMP_pressure;BME280_temperature;BME280_humidity;BME280_pressure;Samples;Min_cycle;Max_cycle;Signal;HPM_P1;HPM_P2
2021/12/08 00:01:47;;;;;;;20.02;9.13;;;;;;;3.12;100.00;99114.09;5032306;28;20044;-73
2021/12/08 00:04:13;;;;;;;18.40;8.80;;;;;;;3.15;100.00;99128.75;5032837;28;20083;-72
2021/12/08 00:06:38;;;;;;;14.80;9.77;;;;;;;3.18;100.00;99124.06;5032716;28;20041;-73
2021/12/08 00:09:25;;;;;;;15.35;8.63;;;;;;;3.27;100.00;99126.84;5031961;28;20434;-72
2021/12/08 00:14:34;;;;;;;15.95;9.25;;;;;;;3.33;100.00;99128.97;5033245;28;20122;-72
2021/12/08 00:17:00;;;;;;;15.07;10.35;;;;;;;3.37;100.00;99129.50;5031938;28;20537;-72
2021/12/08 00:19:27;;;;;;;16.30;9.75;;;;;;;3.41;100.00;99123.84;5032485;28;20410;-73
2021/12/08 00:21:53;;;;;;;15.32;8.95;;;;;;;3.43;100.00;99119.28;5032053;28;20041;-72
2021/12/08 00:24:18;;;;;;;14.23;9.15;;;;;;;3.42;100.00;99111.53;5032412;28;20045;-72
2021/12/08 00:26:43;;;;;;;18.55;9.55;;;;;;;3.39;100.00;99104.75;5032237;28;20128;-72
2021/12/08 00:29:09;;;;;;;18.20;9.52;;;;;;;3.37;100.00;99100.59;5031052;28;20605;-72
2021/12/08 00:31:34;;;;;;;14.68;9.40;;;;;;;3.36;100.00;99105.03;5032287;28;20036;-72
2021/12/08 00:34:00;;;;;;;18.95;9.38;;;;;;;3.35;100.00;99113.88;5031536;28;20038;-73
2021/12/08 00:36:31;;;;;;;20.50;10.25;;;;;;;3.34;100.00;99109.56;5032703;28;20048;-72
2021/12/08 00:38:57;;;;;;;18.13;9.68;;;;;;;3.43;100.00;99114.00;5031760;28;20060;-71
2021/12/08 00:41:22;;;;;;;25.42;10.32;;;;;;;3.49;100.00;99115.28;5032499;28;20478;-72
2021/12/08 00:43:47;;;;;;;16.90;9.77;;;;;;;3.51;100.00;99122.06;5032154;28;20029;-71
2021/12/08 00:46:13;;;;;;;18.92;10.88;;;;;;;3.56;100.00;99113.78;5031481;28;20457;-72
2021/12/08 00:48:41;;;;;;;15.30;9.82;;;;;;;3.61;100.00;99113.34;5032120;28;20116;-71
2021/12/08 00:51:06;;;;;;;13.35;9.70;;;;;;;3.63;100.00;99114.06;5031844;28;20030;-73
2021/12/08 00:53:31;;;;;;;19.77;9.07;;;;;;;3.65;100.00;99126.09;5032389;28;20034;-72
2021/12/08 00:55:57;;;;;;;15.27;8.48;;;;;;;3.66;100.00;99122.50;5030298;28;20035;-73
2021/12/08 00:58:22;;;;;;;16.88;7.95;;;;;;;3.68;100.00;99133.72;5032068;28;20104;-72
2021/12/08 01:00:52;;;;;;;19.73;8.23;;;;;;;3.71;100.00;99135.25;5031872;28;20033;-72
2021/12/08 01:03:17;;;;;;;16.05;7.70;;;;;;;3.75;100.00;99147.16;5031189;28;20033;-73
2021/12/08 01:05:47;;;;;;;15.77;7.82;;;;;;;3.72;100.00;99144.81;5031879;28;20052;-72
2021/12/08 01:08:13;;;;;;;10.25;7.50;;;;;;;3.76;100.00;99150.63;5031088;28;20140;-72
2021/12/08 01:10:41;;;;;;;17.60;7.25;;;;;;;3.79;100.00;99145.09;5031970;28;20444;-72
2021/12/08 01:13:09;;;;;;;17.05;6.80;;;;;;;3.80;100.00;99154.66;5031047;28;20053;-73
2021/12/08 01:15:38;;;;;;;16.13;6.97;;;;;;;3.83;100.00;99157.00;5031828;28;20524;-72
2021/12/08 01:18:03;;;;;;;12.02;6.75;;;;;;;3.84;100.00;99169.19;5031333;28;20044;-72
2021/12/08 01:20:29;;;;;;;13.70;6.07;;;;;;;3.84;100.00;99170.03;5031788;28;20417;-71
2021/12/08 01:22:55;;;;;;;12.35;5.80;;;;;;;3.84;100.00;99182.34;5031718;28;20033;-72
2021/12/08 01:25:20;;;;;;;13.90;6.65;;;;;;;3.85;100.00;99163.81;5031739;28;20045;-72
2021/12/08 01:27:46;;;;;;;11.95;6.07;;;;;;;3.91;100.00;99182.63;5031628;28;20438;-72
2021/12/08 01:30:12;;;;;;;16.15;6.53;;;;;;;3.91;100.00;99177.38;5031286;28;20083;-72
2021/12/08 01:32:38;;;;;;;11.93;5.82;;;;;;;3.92;100.00;99189.56;5031615;28;20034;-73
2021/12/08 01:35:05;;;;;;;12.77;6.70;;;;;;;3.95;100.00;99187.47;5031194;28;20086;-72
2021/12/08 01:37:32;;;;;;;11.18;5.88;;;;;;;3.99;100.00;99201.22;5031533;28;20048;-72
2021/12/08 01:39:58;;;;;;;11.82;5.97;;;;;;;3.97;100.00;99205.75;5033856;28;20577;-81
2021/12/08 01:42:35;;;;;;;12.40;6.07;;;;;;;3.95;100.00;99202.44;5034047;28;20041;-72
2021/12/08 01:47:47;;;;;;;16.83;5.97;;;;;;;3.98;100.00;99194.28;5035776;28;20052;-73
2021/12/08 01:50:13;;;;;;;14.57;5.43;;;;;;;3.99;100.00;99201.22;5034927;28;20108;-73
2021/12/08 01:52:38;;;;;;;11.20;5.05;;;;;;;4.01;100.00;99201.91;5035288;28;20515;-72
2021/12/08 01:55:06;;;;;;;9.07;5.18;;;;;;;3.97;100.00;99206.63;5034569;28;20533;-72
2021/12/08 01:57:31;;;;;;;13.48;4.97;;;;;;;3.95;100.00;99205.06;5035041;28;20037;-71
2021/12/08 01:59:56;;;;;;;8.38;4.97;;;;;;;3.91;100.00;99204.50;5035207;28;20025;-71
2021/12/08 02:02:22;;;;;;;6.95;4.65;;;;;;;3.88;100.00;99212.66;5034374;28;20037;-72
2021/12/08 02:04:47;;;;;;;10.05;6.07;;;;;;;3.87;100.00;99211.03;5035076;28;20041;-72
2021/12/08 02:07:13;;;;;;;13.02;5.20;;;;;;;3.88;100.00;99204.78;5034474;28;20032;-73
2021/12/08 02:09:39;;;;;;;10.90;5.20;;;;;;;3.92;100.00;99221.13;5034876;28;20087;-72
2021/12/08 02:12:04;;;;;;;9.65;5.07;;;;;;;3.92;100.00;99223.78;5034500;28;20481;-79
2021/12/08 02:14:32;;;;;;;9.88;4.45;;;;;;;3.89;100.00;99228.31;5034756;28;20051;-72
2021/12/08 02:16:57;;;;;;;8.07;3.70;;;;;;;3.86;100.00;99222.50;5035102;28;20411;-72
2021/12/08 02:19:23;;;;;;;6.18;2.40;;;;;;;3.79;100.00;99229.28;5033170;28;20093;-71
2021/12/08 02:21:52;;;;;;;9.20;2.88;;;;;;;3.70;100.00;99226.50;5033612;28;20478;-72
2021/12/08 02:24:20;;;;;;;4.25;1.90;;;;;;;3.65;100.00;99236.56;5034094;28;20060;-72
2021/12/08 02:26:48;;;;;;;3.40;2.00;;;;;;;3.62;100.00;99225.50;5034516;28;20123;-74
2021/12/08 02:29:20;;;;;;;6.93;2.22;;;;;;;3.57;100.00;99239.06;5034231;28;20082;-73
2021/12/08 02:31:57;;;;;;;8.63;2.70;;;;;;;3.55;100.00;99235.69;5034640;28;20030;-73
2021/12/08 02:48:03;;;;;;;10.70;5.63;;;;;;;3.47;100.00;99220.59;5034324;28;20763;-73
2021/12/08 02:50:38;;;;;;;16.75;6.80;;;;;;;3.52;100.00;99215.78;5032528;28;20045;-73
2021/12/08 02:53:05;;;;;;;15.48;7.68;;;;;;;3.57;100.00;99218.00;5034203;28;20480;-73
2021/12/08 02:55:31;;;;;;;20.58;7.35;;;;;;;3.66;100.00;99213.75;5033411;28;20116;-74
2021/12/08 02:58:00;;;;;;;12.75;6.45;;;;;;;3.65;100.00;99210.28;5033950;28;20034;-73
2021/12/08 03:00:28;;;;;;;13.77;5.70;;;;;;;3.62;100.00;99228.13;5033144;28;20041;-72
2021/12/08 03:02:56;;;;;;;12.90;5.50;;;;;;;3.61;100.00;99229.09;5033837;28;20049;-73
2021/12/08 03:05:21;;;;;;;11.82;4.93;;;;;;;3.59;100.00;99225.78;5033268;28;20036;-73
2021/12/08 03:07:48;;;;;;;12.30;4.82;;;;;;;3.60;100.00;99227.41;5033958;28;20037;-72
2021/12/08 03:10:16;;;;;;;12.85;4.43;;;;;;;3.58;100.00;99234.63;5032153;28;20440;-79
2021/12/08 03:12:42;;;;;;;17.23;3.83;;;;;;;3.52;100.00;99228.09;5033612;28;20547;-74
2021/12/08 03:15:09;;;;;;;8.30;2.88;;;;;;;3.48;100.00;99218.81;5033569;28;20127;-73
2021/12/08 03:17:35;;;;;;;7.90;2.63;;;;;;;3.45;100.00;99221.69;5033044;28;20105;-72
2021/12/08 03:20:14;;;;;;;8.32;2.40;;;;;;;3.42;100.00;99222.81;5032386;28;20061;-73
2021/12/08 03:22:45;;;;;;;5.88;2.20;;;;;;;3.33;100.00;99231.50;5033345;28;20030;-72
2021/12/08 03:25:14;;;;;;;6.90;1.73;;;;;;;3.25;100.00;99236.56;5033552;28;20029;-73
2021/12/08 03:27:48;;;;;;;5.43;1.42;;;;;;;3.18;100.00;99231.84;5032868;28;20082;-73
2021/12/08 03:30:22;;;;;;;6.25;1.80;;;;;;;3.16;100.00;99231.13;5032403;28;20039;-72
2021/12/08 03:32:54;;;;;;;7.22;1.67;;;;;;;3.10;100.00;99238.69;5032239;28;20132;-72
2021/12/08 03:35:20;;;;;;;5.38;1.92;;;;;;;3.04;100.00;99242.69;5032831;28;20025;-73
2021/12/08 03:37:46;;;;;;;6.63;2.00;;;;;;;2.96;100.00;99235.44;5032954;28;20044;-72
2021/12/08 03:40:17;;;;;;;8.90;2.13;;;;;;;2.93;100.00;99237.50;5032855;28;20215;-72
2021/12/08 03:42:44;;;;;;;8.23;2.03;;;;;;;2.89;100.00;99244.78;5032836;28;20045;-72
2021/12/08 03:45:31;;;;;;;14.48;3.17;;;;;;;2.89;100.00;99246.59;5032786;28;20057;-72
2021/12/08 03:48:02;;;;;;;4.68;2.60;;;;;;;2.89;100.00;99243.97;5033035;28;20037;-72
2021/12/08 03:50:30;;;;;;;9.32;2.95;;;;;;;2.87;100.00;99249.34;5032262;28;20021;-72
2021/12/08 03:52:56;;;;;;;14.30;3.25;;;;;;;2.87;100.00;99252.00;5032951;28;20030;-73
2021/12/08 03:55:21;;;;;;;18.35;3.67;;;;;;;2.91;100.00;99263.06;5032313;28;20033;-82
2021/12/08 03:57:47;;;;;;;12.65;3.55;;;;;;;2.86;100.00;99245.06;5032838;28;20029;-73
2021/12/08 04:00:19;;;;;;;13.35;3.78;;;;;;;2.90;100.00;99261.41;5031494;28;20523;-73
2021/12/08 04:02:45;;;;;;;13.63;3.78;;;;;;;2.83;100.00;99263.72;5032252;28;20029;-73
2021/12/08 04:05:11;;;;;;;15.15;3.85;;;;;;;2.87;100.00;99261.69;5031371;28;20037;-73
2021/12/08 04:07:43;;;;;;;14.48;3.50;;;;;;;2.86;100.00;99268.69;5032261;28;20091;-73
2021/12/08 04:10:17;;;;;;;12.50;3.53;;;;;;;2.86;100.00;99258.19;5052422;22;20042;-74
2021/12/08 04:12:52;;;;;;;12.88;3.35;;;;;;;2.89;100.00;99249.22;5030591;28;20135;-74
2021/12/08 04:15:20;;;;;;;9.90;3.78;;;;;;;2.93;100.00;99248.84;5031143;28;20466;-73
2021/12/08 04:17:49;;;;;;;16.67;4.18;;;;;;;2.87;100.00;99245.91;5031980;28;20033;-73
2021/12/08 04:20:23;;;;;;;11.68;3.10;;;;;;;2.87;100.00;99252.00;5032243;28;20026;-73
2021/12/08 04:22:52;;;;;;;7.88;2.78;;;;;;;2.86;100.00;99265.25;5031871;28;20025;-73
2021/12/08 04:25:22;;;;;;;11.43;3.17;;;;;;;2.80;100.00;99267.41;5032557;28;20026;-73
2021/12/08 04:27:50;;;;;;;9.73;2.67;;;;;;;2.76;100.00;99271.28;5031514;28;20070;-72
2021/12/08 04:30:23;;;;;;;12.65;2.95;;;;;;;2.80;100.00;99269.22;5032389;28;20040;-73
2021/12/08 04:32:49;;;;;;;8.02;2.60;;;;;;;2.81;100.00;99281.41;5031734;28;20063;-73
2021/12/08 04:35:17;;;;;;;6.82;2.38;;;;;;;2.86;100.00;99296.78;5031976;28;20029;-73
2021/12/08 04:37:48;;;;;;;9.63;2.63;;;;;;;2.87;100.00;99299.28;5031508;28;20038;-73
2021/12/08 04:40:30;;;;;;;10.18;2.50;;;;;;;2.80;100.00;99288.44;5032005;28;20401;-73
2021/12/08 04:45:44;;;;;;;9.70;2.50;;;;;;;2.78;100.00;99298.25;5031943;28;20088;-82
2021/12/08 04:51:01;;;;;;;11.25;3.33;;;;;;;2.81;100.00;99303.25;5031352;28;20041;-73
2021/12/08 05:04:34;;;;;;;9.80;3.10;;;;;;;2.74;99.96;99269.72;5001297;28;20041;-73
2021/12/08 05:07:50;;;;;;;;;;;;;;;2.71;99.76;99275.25;5032239;28;20038;-73
2021/12/08 05:09:48;;;;;;;13.02;3.65;;;;;;;2.70;99.28;99279.63;5020215;28;19913;-74
2021/12/08 05:12:24;;;;;;;11.30;3.50;;;;;;;2.64;100.00;99281.00;5031275;28;20085;-73
2021/12/08 05:14:55;;;;;;;15.30;4.53;;;;;;;2.57;100.00;99285.09;5015904;28;20038;-72
2021/12/08 05:17:29;;;;;;;8.52;3.10;;;;;;;2.55;100.00;99291.41;5036188;28;20041;-73
2021/12/08 05:19:58;;;;;;;12.60;3.42;;;;;;;2.56;100.00;99290.47;5017341;28;20056;-72
2021/12/08 05:22:28;;;;;;;19.83;4.25;;;;;;;2.57;99.87;99300.03;5035308;28;20040;-73
2021/12/08 05:24:55;;;;;;;15.98;3.05;;;;;;;2.52;100.00;99300.38;5034899;28;20112;-72
2021/12/08 05:27:26;;;;;;;13.43;3.50;;;;;;;2.49;100.00;99297.16;5035215;28;20052;-72
2021/12/08 05:29:54;;;;;;;10.15;3.00;;;;;;;2.60;99.68;99315.53;5035021;28;20028;-73
2021/12/08 05:32:20;;;;;;;15.48;4.43;;;;;;;2.59;99.13;99298.91;5035219;28;20056;-72
2021/12/08 05:34:46;;;;;;;9.05;3.10;;;;;;;2.52;99.49;99292.50;5034886;28;20462;-72
2021/12/08 05:37:14;;;;;;;7.10;2.55;;;;;;;2.44;99.87;99318.53;5035172;28;20025;-72
2021/12/08 05:39:39;;;;;;;13.38;3.00;;;;;;;2.42;100.00;99323.09;5035114;28;20116;-73
2021/12/08 05:42:10;;;;;;;18.67;3.20;;;;;;;2.41;100.00;99332.75;5035406;28;20112;-72
2021/12/08 05:44:36;;;;;;;16.42;3.67;;;;;;;2.46;100.00;99333.22;5035434;28;20117;-71
2021/12/08 05:47:05;;;;;;;8.55;3.17;;;;;;;2.49;100.00;99336.56;5034741;28;20025;-72
2021/12/08 05:49:31;;;;;;;13.05;2.88;;;;;;;2.55;99.89;99343.94;5035140;28;20087;-72
2021/12/08 05:51:56;;;;;;;15.60;3.38;;;;;;;2.60;99.59;99333.91;5034344;28;20041;-72
2021/12/08 05:54:30;;;;;;;11.52;2.53;;;;;;;2.59;99.12;99335.69;5017685;28;20065;-71
2021/12/08 05:56:57;;;;;;;11.23;2.70;;;;;;;2.57;99.42;99339.41;5034477;28;20367;-71
2021/12/08 05:59:24;;;;;;;13.52;2.78;;;;;;;2.65;98.16;99340.44;5035060;28;20366;-71
2021/12/08 06:02:04;;;;;;;8.35;3.03;;;;;;;2.67;97.74;99342.94;5034516;28;20037;-71
2021/12/08 06:04:30;;;;;;;10.50;2.63;;;;;;;2.62;97.72;99352.97;5033751;28;20543;-71
2021/12/08 06:06:58;;;;;;;15.60;3.42;;;;;;;2.60;97.72;99357.53;5034520;28;20040;-72
2021/12/08 06:09:26;;;;;;;15.55;2.53;;;;;;;2.53;98.05;99365.06;5032337;28;20437;-76
2021/12/08 06:11:53;;;;;;;12.30;3.28;;;;;;;2.51;98.07;99379.25;5031439;28;20077;-72
2021/12/08 06:14:21;;;;;;;14.98;3.17;;;;;;;2.49;97.92;99384.63;5034731;28;20036;-70
2021/12/08 06:16:49;;;;;;;14.18;2.60;;;;;;;2.47;98.04;99382.13;5034109;28;20025;-71
2021/12/08 06:19:16;;;;;;;10.98;2.92;;;;;;;2.49;97.95;99383.81;5034607;28;20382;-71
2021/12/08 06:21:42;;;;;;;11.82;3.08;;;;;;;2.49;97.81;99384.63;5034788;28;20063;-71
2021/12/08 06:24:11;;;;;;;13.68;3.05;;;;;;;2.52;97.87;99391.44;5034156;28;20033;-71
2021/12/08 06:26:36;;;;;;;14.63;2.80;;;;;;;2.49;97.60;99389.06;5033215;28;20029;-70
2021/12/08 06:29:04;;;;;;;18.10;2.80;;;;;;;2.48;97.65;99390.88;5033809;28;20076;-71
2021/12/08 06:31:30;;;;;;;20.08;2.95;;;;;;;2.44;97.84;99392.88;5034228;28;20037;-71
2021/12/08 06:33:56;;;;;;;12.07;2.85;;;;;;;2.39;98.32;99396.81;5033957;28;20086;-70
2021/12/08 06:36:26;;;;;;;13.30;2.70;;;;;;;2.41;98.82;99382.63;5034379;28;20057;-72
2021/12/08 06:38:52;;;;;;;12.20;2.97;;;;;;;2.48;98.13;99396.13;5033812;28;20056;-72
2021/12/08 06:41:32;;;;;;;10.63;2.53;;;;;;;2.46;98.15;99412.00;5034066;28;20057;-72
2021/12/08 06:44:05;;;;;;;20.15;3.05;;;;;;;2.54;96.93;99400.03;5033782;28;20076;-71
2021/12/08 06:46:31;;;;;;;13.52;3.28;;;;;;;2.47;97.23;99403.13;5032632;28;20033;-72
2021/12/08 06:48:59;;;;;;;13.45;2.78;;;;;;;2.47;97.39;99400.50;5033557;28;20029;-71
2021/12/08 06:51:29;;;;;;;13.70;2.45;;;;;;;2.50;97.39;99403.88;5033759;28;20021;-72
2021/12/08 06:54:05;;;;;;;16.83;3.47;;;;;;;2.49;97.08;99408.25;5033424;28;20393;-71
2021/12/08 06:56:40;;;;;;;8.73;2.42;;;;;;;2.42;97.22;99404.50;5033877;28;20109;-72
2021/12/08 06:59:09;;;;;;;15.07;3.47;;;;;;;2.42;97.56;99405.31;5033250;28;20029;-72
2021/12/08 07:01:48;;;;;;;16.00;3.58;;;;;;;2.53;96.60;99414.94;5033803;28;20084;-71
2021/12/08 07:04:33;;;;;;;16.40;3.35;;;;;;;2.51;96.75;99419.50;5032108;28;20036;-73
2021/12/08 07:07:04;;;;;;;12.70;2.92;;;;;;;2.45;97.30;99414.75;5034846;28;20362;-72
2021/12/08 07:09:47;;;;;;;18.73;3.47;;;;;;;2.42;97.24;99409.75;5031433;28;20120;-76
2021/12/08 07:12:24;;;;;;;16.58;4.95;;;;;;;2.42;97.26;99415.00;5030435;28;20158;-72
2021/12/08 07:14:56;;;;;;;16.52;3.30;;;;;;;2.33;97.29;99418.31;5031202;28;20044;-73
2021/12/08 07:17:24;;;;;;;15.50;3.55;;;;;;;2.27;97.61;99427.53;5035402;28;20103;-75
2021/12/08 07:20:03;;;;;;;12.50;3.08;;;;;;;2.31;97.69;99421.06;5031008;28;20038;-72
2021/12/08 07:22:32;;;;;;;8.98;2.47;;;;;;;2.47;97.13;99423.31;5030453;28;20034;-73
2021/12/08 07:25:00;;;;;;;15.18;3.47;;;;;;;2.43;97.01;99416.63;5012580;28;20048;-73
2021/12/08 07:27:29;;;;;;;18.02;3.00;;;;;;;2.39;97.40;99433.56;5030722;28;20117;-74
2021/12/08 07:29:58;;;;;;;15.73;3.28;;;;;;;2.46;97.04;99437.41;5029876;28;20389;-84
2021/12/08 07:32:30;;;;;;;24.40;4.07;;;;;;;2.43;97.39;99443.75;5030532;28;20121;-75
2021/12/08 07:34:58;;;;;;;10.40;3.38;;;;;;;2.47;97.46;99432.03;5029712;28;20295;-79
2021/12/08 07:37:29;;;;;;;19.08;3.45;;;;;;;2.62;96.16;99435.22;5030318;28;20036;-71
2021/12/08 07:40:09;;;;;;;18.00;3.22;;;;;;;2.58;96.46;99430.34;5030344;28;20127;-75
2021/12/08 07:42:44;;;;;;;9.82;2.70;;;;;;;2.56;96.07;99435.72;5022965;28;20033;-73
2021/12/08 07:45:14;;;;;;;11.40;3.00;;;;;;;2.52;96.46;99425.56;5022200;28;20030;-74
2021/12/08 07:47:41;;;;;;;14.32;3.30;;;;;;;2.56;95.94;99440.13;5024728;28;20049;-73
2021/12/08 07:50:16;;;;;;;18.45;3.47;;;;;;;2.56;95.83;99445.41;5024619;28;20057;-74
2021/12/08 07:52:45;;;;;;;18.40;3.05;;;;;;;2.58;95.67;99432.97;5007577;28;20025;-73
2021/12/08 07:55:19;;;;;;;14.43;3.47;;;;;;;2.61;95.49;99446.69;5024850;28;20095;-72
2021/12/08 07:57:45;;;;;;;10.52;2.85;;;;;;;2.58;95.62;99446.09;5024355;28;20326;-73
2021/12/08 08:00:20;;;;;;;11.88;2.83;;;;;;;2.53;96.14;99443.00;5023421;28;20029;-73
2021/12/08 08:02:46;;;;;;;12.63;3.15;;;;;;;2.51;96.56;99450.16;5025731;28;20048;-75
2021/12/08 08:05:13;;;;;;;14.88;3.33;;;;;;;2.55;96.52;99447.16;5023387;28;20029;-74
2021/12/08 08:07:41;;;;;;;13.32;3.00;;;;;;;2.65;95.91;99457.78;5026110;28;20057;-77
2021/12/08 08:10:13;;;;;;;11.88;2.90;;;;;;;2.66;96.07;99462.09;5025839;28;20522;-71
2021/12/08 08:12:39;;;;;;;11.10;2.97;;;;;;;2.72;96.21;99447.66;5024080;28;20042;-78
2021/12/08 08:15:10;;;;;;;13.88;3.10;;;;;;;2.83;95.23;99458.94;5025328;28;20033;-74
2021/12/08 08:17:41;;;;;;;12.57;2.95;;;;;;;2.91;95.14;99454.84;5023242;28;20793;-73
2021/12/08 08:20:18;;;;;;;17.35;3.78;;;;;;;2.96;95.20;99450.91;4991615;28;20038;-78
2021/12/08 08:22:44;;;;;;;10.38;2.83;;;;;;;3.00;94.94;99462.00;5024538;28;20520;-74
2021/12/08 08:25:13;;;;;;;11.55;2.60;;;;;;;3.05;94.87;99465.09;5022658;28;20057;-71
2021/12/08 08:27:40;;;;;;;11.77;2.83;;;;;;;3.02;94.99;99459.28;5025173;28;20087;-70
2021/12/08 08:30:17;;;;;;;15.98;3.22;;;;;;;3.01;95.23;99471.56;5022373;28;20490;-70
2021/12/08 08:32:44;;;;;;;10.80;2.63;;;;;;;3.05;95.08;99457.22;5023557;28;20060;-76
2021/12/08 08:35:33;;;;;;;11.60;3.55;;;;;;;3.16;94.28;99456.34;5023879;28;20128;-73
2021/12/08 08:38:03;;;;;;;12.98;3.08;;;;;;;3.26;94.22;99462.50;5018263;28;20075;-72
2021/12/08 08:40:39;;;;;;;9.70;2.95;;;;;;;3.38;93.65;99462.47;5007195;28;20109;-74
2021/12/08 08:43:07;;;;;;;13.98;3.15;;;;;;;3.50;93.73;99462.28;5023281;28;20381;-80
2021/12/08 08:45:55;;;;;;;11.88;3.35;;;;;;;3.60;92.29;99448.34;5023181;28;20075;-71
2021/12/08 08:48:26;;;;;;;9.30;2.88;;;;;;;3.64;92.01;99462.91;5023185;28;20029;-73
2021/12/08 08:50:59;;;;;;;12.57;2.83;;;;;;;3.66;91.40;99463.66;5024326;28;20046;-77
2021/12/08 08:53:29;;;;;;;9.73;2.78;;;;;;;3.74;91.73;99463.00;5011360;28;20108;-72
2021/12/08 08:56:03;;;;;;;9.10;2.50;;;;;;;3.77;91.48;99471.47;5005175;28;20129;-74
2021/12/08 08:58:32;;;;;;;11.13;2.15;;;;;;;3.77;91.01;99474.09;5005223;28;20044;-75
2021/12/08 09:01:12;;;;;;;10.90;2.58;;;;;;;3.79;91.28;99480.06;5012014;28;20037;-76
2021/12/08 09:03:38;;;;;;;10.90;2.58;;;;;;;3.83;90.83;99475.38;5025234;28;20029;-74
2021/12/08 09:06:17;;;;;;;10.00;2.85;;;;;;;3.81;90.84;99480.78;5023695;28;20038;-73
2021/12/08 09:08:43;;;;;;;12.70;3.38;;;;;;;3.76;89.86;99477.69;5024378;28;20038;-74
2021/12/08 09:11:12;;;;;;;19.23;4.20;;;;;;;3.79;90.50;99474.81;5004261;28;20046;-74
2021/12/08 09:13:59;;;;;;;13.25;3.65;;;;;;;3.82;90.99;99471.91;5022205;28;20038;-72
2021/12/08 09:16:36;;;;;;;10.10;3.53;;;;;;;3.81;90.05;99467.63;5025388;28;20033;-72
2021/12/08 09:19:14;;;;;;;15.20;3.55;;;;;;;3.82;89.89;99471.06;5023706;28;20029;-74
2021/12/08 09:21:39;;;;;;;12.20;3.08;;;;;;;3.78;89.36;99472.31;5022711;28;20029;-71
2021/12/08 09:24:15;;;;;;;10.10;3.28;;;;;;;3.75;89.68;99470.75;5024563;28;20029;-74
2021/12/08 09:26:55;;;;;;;7.15;3.17;;;;;;;3.70;90.32;99478.19;5027703;28;20048;-77
2021/12/08 09:29:25;;;;;;;8.10;2.72;;;;;;;3.64;90.65;99499.75;5037483;28;20029;-73
2021/12/08 09:31:56;;;;;;;10.80;3.00;;;;;;;3.62;89.97;99510.41;5023919;28;20343;-73
2021/12/08 09:34:30;;;;;;;;;;;;;;;3.68;90.57;99509.06;5025140;28;20029;-71
2021/12/08 09:37:00;;;;;;;13.10;3.00;;;;;;;3.64;90.67;99526.91;5027464;28;19917;-74
2021/12/08 09:39:34;;;;;;;11.10;2.95;;;;;;;3.65;91.24;99522.47;5024505;28;20037;-71
2021/12/08 09:42:14;;;;;;;14.32;3.45;;;;;;;3.67;90.05;99529.28;5025446;28;20036;-72
2021/12/08 09:44:56;;;;;;;15.90;3.53;;;;;;;3.65;90.63;99539.09;5027611;28;20082;-72
2021/12/08 09:47:28;;;;;;;12.43;2.97;;;;;;;3.64;89.98;99536.56;5025320;28;20079;-73
2021/12/08 09:49:58;;;;;;;12.02;4.00;;;;;;;3.65;90.40;99536.44;5009637;28;20041;-78
2021/12/08 09:52:27;;;;;;;10.43;3.53;;;;;;;3.65;89.08;99544.34;5026361;28;20037;-74
2021/12/08 09:54:57;;;;;;;12.05;3.20;;;;;;;3.68;90.14;99554.59;5025255;28;20040;-73
2021/12/08 09:57:23;;;;;;;8.98;3.50;;;;;;;3.78;89.54;99541.53;5026611;28;20033;-73
2021/12/08 09:59:48;;;;;;;13.15;3.55;;;;;;;3.80;89.48;99550.13;5025666;28;20120;-73
2021/12/08 10:02:24;;;;;;;12.45;3.45;;;;;;;3.83;89.90;99554.31;5010846;28;20345;-73
2021/12/08 10:04:50;;;;;;;9.18;3.25;;;;;;;3.83;89.18;99555.13;5029698;28;20474;-73
2021/12/08 10:07:18;;;;;;;12.80;3.47;;;;;;;3.81;89.30;99546.56;5028170;28;20037;-78
2021/12/08 10:09:43;;;;;;;11.23;3.35;;;;;;;3.80;89.17;99565.91;5029876;28;20045;-78
2021/12/08 10:12:09;;;;;;;15.60;3.45;;;;;;;3.79;89.72;99569.53;5029202;28;20056;-73
2021/12/08 10:14:35;;;;;;;11.93;3.35;;;;;;;3.83;89.49;99564.84;5028451;28;20030;-73
2021/12/08 10:17:00;;;;;;;8.02;3.22;;;;;;;3.85;88.38;99569.03;5029782;28;20382;-74
2021/12/08 10:19:26;;;;;;;9.57;3.38;;;;;;;3.92;89.72;99568.50;5027556;28;20033;-74
2021/12/08 10:21:51;;;;;;;10.50;4.35;;;;;;;3.92;88.84;99576.41;5030078;28;20121;-78
2021/12/08 10:24:22;;;;;;;13.88;4.32;;;;;;;3.99;88.49;99559.97;5028621;28;20107;-73
2021/12/08 10:26:49;;;;;;;7.65;3.60;;;;;;;4.05;86.82;99563.91;5028917;28;20048;-75
2021/12/08 10:29:15;;;;;;;7.97;3.95;;;;;;;4.20;87.85;99583.66;5029091;28;20030;-73
2021/12/08 10:31:40;;;;;;;14.68;4.40;;;;;;;4.29;87.16;99563.63;5026271;28;20037;-73
2021/12/08 10:36:55;;;;;;;12.25;3.90;;;;;;;4.47;86.41;99563.84;5027647;28;20041;-75
2021/12/08 10:39:45;;;;;;;11.25;3.53;;;;;;;4.32;85.26;99562.53;5019790;28;20105;-78
2021/12/08 10:42:14;;;;;;;9.48;4.43;;;;;;;4.40;86.05;99560.94;5010068;28;20060;-76
2021/12/08 10:44:56;;;;;;;11.35;3.55;;;;;;;4.36;86.17;99569.19;5006628;28;20030;-79
2021/12/08 10:47:39;;;;;;;8.07;3.20;;;;;;;4.40;84.51;99563.56;5008749;28;20024;-81
2021/12/08 10:56:09;;;;;;;7.20;3.03;;;;;;;4.77;83.31;99556.91;5027570;28;20107;-74
2021/12/08 10:58:39;;;;;;;11.93;3.22;;;;;;;4.87;83.45;99544.63;5028789;28;20061;-76
2021/12/08 11:01:19;;;;;;;9.30;3.00;;;;;;;5.08;82.80;99548.97;5027354;28;20029;-78
2021/12/08 11:03:45;;;;;;;8.13;2.80;;;;;;;5.15;82.33;99544.84;5011834;28;20151;-82
2021/12/08 11:06:15;;;;;;;10.80;3.25;;;;;;;5.28;82.04;99548.06;5028847;28;20116;-75
2021/12/08 11:08:45;;;;;;;7.05;2.75;;;;;;;5.34;81.34;99559.84;5027215;28;20048;-76
2021/12/08 11:11:20;;;;;;;8.45;2.88;;;;;;;5.41;80.64;99552.22;5028138;28;20037;-75
2021/12/08 11:13:54;;;;;;;8.90;3.15;;;;;;;5.42;79.48;99548.59;5027013;28;20482;-74
2021/12/08 11:16:35;;;;;;;10.90;3.17;;;;;;;5.27;81.30;99558.75;5025205;28;20121;-74
2021/12/08 11:19:05;;;;;;;11.27;3.35;;;;;;;5.19;82.47;99563.84;5025692;28;20109;-76
2021/12/08 11:21:37;;;;;;;9.80;3.67;;;;;;;5.14;82.62;99560.78;5009261;28;20049;-79
2021/12/08 11:24:44;;;;;;;8.07;3.28;;;;;;;5.08;82.27;99573.53;5022823;28;20108;-77
2021/12/08 11:27:10;;;;;;;7.93;3.33;;;;;;;5.20;82.10;99571.63;5010840;28;20045;-80
2021/12/08 11:29:38;;;;;;;11.07;2.97;;;;;;;5.38;81.00;99577.06;5024158;28;20033;-78
2021/12/08 11:32:09;;;;;;;8.40;3.00;;;;;;;5.31;81.83;99581.22;5024106;28;20063;-74
2021/12/08 11:34:43;;;;;;;7.60;2.97;;;;;;;5.31;82.05;99581.22;5024577;28;20040;-76
2021/12/08 11:37:15;;;;;;;8.43;3.08;;;;;;;5.09;82.37;99575.22;5024272;28;20032;-74
2021/12/08 11:39:52;;;;;;;8.27;2.83;;;;;;;5.14;81.73;99579.25;5025267;28;20240;-75
2021/12/08 11:42:24;;;;;;;9.60;3.13;;;;;;;5.19;83.06;99572.56;5025359;28;20409;-75
2021/12/08 11:45:00;;;;;;;10.20;3.13;;;;;;;5.15;82.90;99570.34;5023923;28;20083;-79
2021/12/08 11:47:34;;;;;;;11.05;2.92;;;;;;;5.16;82.15;99578.13;5026023;28;20044;-82
2021/12/08 11:50:08;;;;;;;9.60;2.92;;;;;;;5.21;82.72;99578.56;5022743;28;20033;-73
2021/12/08 11:52:34;;;;;;;8.70;2.83;;;;;;;5.30;82.05;99579.56;5024337;28;20033;-78
2021/12/08 11:55:03;;;;;;;7.30;2.95;;;;;;;5.31;81.26;99578.56;5025163;28;20041;-81
2021/12/08 11:57:36;;;;;;;5.78;2.40;;;;;;;5.28;80.65;99579.69;5024538;28;20481;-78
2021/12/08 12:00:24;;;;;;;10.90;3.38;;;;;;;5.37;80.04;99575.38;5025789;28;20043;-81
2021/12/08 12:02:56;;;;;;;9.68;2.90;;;;;;;5.54;81.01;99575.69;5019578;28;20075;-74
2021/12/08 12:05:34;;;;;;;9.23;2.97;;;;;;;5.68;79.44;99577.09;5025142;28;20068;-76
2021/12/08 12:08:01;;;;;;;10.43;3.17;;;;;;;5.81;78.48;99582.94;5027253;28;20036;-78
2021/12/08 12:10:30;;;;;;;10.65;3.60;;;;;;;6.00;78.54;99572.41;5025081;28;20128;-77
2021/12/08 12:12:57;;;;;;;7.25;3.10;;;;;;;6.02;78.20;99568.78;5024722;28;20041;-77
2021/12/08 12:15:23;;;;;;;12.40;3.10;;;;;;;6.10;77.18;99561.81;5025144;28;20041;-78
2021/12/08 12:17:49;;;;;;;3.95;2.45;;;;;;;6.09;78.23;99576.00;5023977;28;20037;-82
2021/12/08 12:20:27;;;;;;;9.85;2.85;;;;;;;6.16;77.09;99573.63;5030023;28;20017;-78
2021/12/08 12:23:46;;;;;;;10.35;2.40;;;;;;;6.44;75.63;99581.66;5039051;28;20107;-84
2021/12/08 12:26:19;;;;;;;9.07;2.60;;;;;;;6.61;76.89;99594.09;4962188;28;20035;-76
2021/12/08 12:29:20;;;;;;;8.77;2.58;;;;;;;6.51;75.13;99590.66;5024168;28;20138;-74
2021/12/08 12:32:04;;;;;;;7.70;2.60;;;;;;;6.53;76.03;99586.06;4967459;28;20025;-74